createdAt,value
2022-09-26T00:00:19.655Z,55.67
2022-09-26T00:02:21.437Z,65.35
2022-09-26T00:04:31.809Z,69.10
2022-09-26T00:06:34.789Z,69.40
2022-09-26T00:08:37.697Z,43.15
2022-09-26T00:10:39.435Z,44.40
2022-09-26T00:12:41.430Z,38.85
2022-09-26T00:14:43.114Z,55.58
2022-09-26T00:16:45.509Z,49.72
2022-09-26T00:18:52.206Z,49.35
2022-09-26T00:20:54.320Z,52.60
2022-09-26T00:22:56.025Z,58.30
2022-09-26T00:24:58.030Z,47.95
2022-09-26T00:26:59.723Z,49.95
2022-09-26T00:29:03.575Z,52.42
2022-09-26T00:31:07.854Z,51.90
2022-09-26T00:33:09.612Z,49.42
2022-09-26T00:35:11.339Z,47.67
2022-09-26T00:37:13.176Z,72.13
2022-09-26T00:39:16.170Z,49.00
2022-09-26T00:41:18.129Z,43.72
2022-09-26T00:43:35.241Z,46.65
2022-09-26T00:45:37.037Z,44.30
2022-09-26T00:47:50.580Z,42.90
2022-09-26T00:49:58.121Z,58.28
2022-09-26T00:52:15.739Z,41.50
2022-09-26T00:54:19.225Z,43.25
2022-09-26T00:56:28.324Z,36.92
2022-09-26T00:58:34.820Z,38.67
2022-09-26T01:00:42.025Z,41.00
2022-09-26T01:02:47.111Z,45.33
2022-09-26T01:04:49.178Z,44.40
2022-09-26T01:06:50.882Z,42.38
2022-09-26T01:09:12.630Z,64.40
2022-09-26T01:11:16.987Z,54.65
2022-09-26T01:13:20.009Z,46.65
2022-09-26T01:15:22.190Z,52.28
2022-09-26T01:17:25.213Z,55.42
2022-09-26T01:19:41.839Z,52.30
2022-09-26T01:22:27.692Z,55.00
2022-09-26T01:25:06.806Z,44.33
2022-09-26T01:27:41.784Z,52.13
2022-09-26T01:30:14.662Z,53.38
2022-09-26T01:32:44.744Z,45.25
2022-09-26T01:35:06.644Z,44.08
2022-09-26T01:37:31.350Z,47.80
2022-09-26T01:39:48.582Z,47.67
2022-09-26T01:42:15.662Z,45.72
2022-09-26T01:44:35.762Z,45.88
2022-09-26T01:46:51.342Z,46.28
2022-09-26T01:49:02.578Z,44.10
2022-09-26T01:51:27.770Z,44.08
2022-09-26T01:54:19.281Z,45.88
2022-09-26T01:56:24.560Z,42.55
2022-09-26T01:58:48.171Z,42.20
2022-09-26T02:00:51.808Z,37.47
2022-09-26T02:05:03.905Z,47.17
2022-09-26T02:07:29.256Z,60.42
2022-09-26T02:09:43.208Z,44.70
2022-09-26T02:11:49.355Z,59.92
2022-09-26T02:13:51.069Z,50.38
2022-09-26T02:16:00.534Z,46.15
2022-09-26T02:18:21.519Z,53.67
2022-09-26T02:20:29.648Z,42.90
2022-09-26T02:22:34.324Z,55.33
2022-09-26T02:24:36.141Z,44.10
2022-09-26T02:26:38.272Z,60.17
2022-09-26T02:28:40.305Z,54.63
2022-09-26T02:30:44.825Z,52.67
2022-09-26T02:32:46.756Z,52.63
2022-09-26T02:34:49.186Z,61.58
2022-09-26T02:36:52.081Z,60.40
2022-09-26T02:38:53.837Z,71.85
2022-09-26T02:41:10.936Z,64.35
2022-09-26T02:43:54.186Z,60.58
2022-09-26T02:46:16.394Z,58.78
2022-09-26T02:48:42.363Z,39.00
2022-09-26T02:51:15.846Z,46.88
2022-09-26T02:53:53.185Z,52.75
2022-09-26T02:56:26.634Z,41.30
2022-09-26T02:58:37.573Z,50.20
2022-09-26T03:00:58.060Z,70.72
2022-09-26T03:03:17.534Z,56.72
2022-09-26T03:05:29.761Z,49.33
2022-09-26T03:07:38.255Z,70.75
2022-09-26T03:09:42.151Z,77.22
2022-09-26T03:11:45.104Z,72.32
2022-09-26T03:13:50.695Z,76.80
2022-09-26T03:15:56.513Z,42.45
2022-09-26T03:18:00.149Z,51.03
2022-09-26T03:20:17.622Z,55.70
2022-09-26T03:22:19.615Z,64.22
2022-09-26T03:24:23.900Z,110.05
2022-09-26T03:26:28.047Z,66.90
2022-09-26T03:28:34.010Z,58.75
2022-09-26T03:30:38.606Z,72.70
2022-09-26T03:32:40.467Z,76.13
2022-09-26T03:34:42.338Z,55.95
2022-09-26T03:36:44.072Z,51.78
2022-09-26T03:38:45.961Z,71.20
2022-09-26T03:40:48.244Z,76.43
2022-09-26T03:42:49.972Z,67.13
2022-09-26T03:44:51.940Z,98.53
2022-09-26T03:46:54.026Z,61.72
2022-09-26T03:48:55.717Z,55.13
2022-09-26T03:51:12.425Z,70.55
2022-09-26T03:53:14.401Z,60.15
2022-09-26T03:55:16.194Z,58.05
2022-09-26T03:57:18.232Z,51.42
2022-09-26T03:59:20.041Z,47.58
2022-09-26T04:01:22.827Z,77.28
2022-09-26T04:03:30.046Z,59.60
2022-09-26T04:05:31.817Z,60.80
2022-09-26T04:07:33.508Z,48.35
2022-09-26T04:09:35.615Z,53.47
2022-09-26T04:11:37.833Z,43.33
2022-09-26T04:13:51.285Z,44.80
2022-09-26T04:15:58.841Z,50.22
2022-09-26T04:18:00.700Z,47.92
2022-09-26T04:20:02.738Z,43.25
2022-09-26T04:22:04.998Z,61.00
2022-09-26T04:24:08.446Z,57.72
2022-09-26T04:26:20.206Z,46.55
2022-09-26T04:28:24.257Z,54.47
2022-09-26T04:30:26.049Z,46.55
2022-09-26T04:32:27.756Z,46.05
2022-09-26T04:34:29.527Z,53.63
2022-09-26T04:36:32.060Z,51.95
2022-09-26T04:38:33.846Z,48.65
2022-09-26T04:40:42.722Z,45.72
2022-09-26T04:42:45.189Z,52.55
2022-09-26T04:44:46.912Z,64.00
2022-09-26T04:46:48.663Z,65.72
2022-09-26T04:48:51.901Z,56.60
2022-09-26T04:50:53.670Z,55.63
2022-09-26T04:52:55.369Z,48.13
2022-09-26T04:54:57.371Z,45.75
2022-09-26T04:57:00.359Z,45.50
2022-09-26T04:59:02.071Z,49.88
2022-09-26T05:01:06.608Z,55.80
2022-09-26T05:03:08.354Z,51.50
2022-09-26T05:05:10.079Z,50.42
2022-09-26T05:07:11.913Z,45.78
2022-09-26T05:09:13.759Z,48.60
2022-09-26T05:11:17.211Z,48.78
2022-09-26T05:13:19.347Z,51.25
2022-09-26T05:15:21.291Z,46.67
2022-09-26T05:17:23.071Z,49.15
2022-09-26T05:19:24.851Z,54.45
2022-09-26T05:21:26.716Z,46.45
2022-09-26T05:23:28.497Z,49.50
2022-09-26T05:25:36.682Z,56.00
2022-09-26T05:27:38.472Z,55.83
2022-09-26T05:29:40.145Z,52.38
2022-09-26T05:31:42.183Z,52.55
2022-09-26T05:33:43.997Z,50.90
2022-09-26T05:35:52.608Z,57.95
2022-09-26T05:38:04.751Z,57.05
2022-09-26T05:40:06.719Z,51.75
2022-09-26T05:42:08.513Z,55.67
2022-09-26T05:44:10.472Z,58.47
2022-09-26T05:46:12.632Z,62.22
2022-09-26T05:48:14.363Z,57.90
2022-09-26T05:50:16.269Z,58.47
2022-09-26T05:52:18.215Z,61.03
2022-09-26T05:54:19.996Z,60.47
2022-09-26T05:56:21.857Z,60.63
2022-09-26T05:58:23.566Z,60.05
2022-09-26T06:00:28.374Z,58.53
2022-09-26T06:02:30.320Z,59.38
2022-09-26T06:04:32.557Z,62.05
2022-09-26T06:06:34.294Z,59.33
2022-09-26T06:08:37.559Z,54.78
2022-09-26T06:10:39.473Z,57.85
2022-09-26T06:12:41.150Z,56.38
2022-09-26T06:14:42.964Z,54.92
2022-09-26T06:16:44.755Z,58.88
2022-09-26T06:18:48.453Z,61.20
2022-09-26T06:22:52.097Z,55.55
2022-09-26T06:24:53.859Z,54.25
2022-09-26T06:26:55.618Z,53.60
2022-09-26T06:28:59.077Z,51.40
2022-09-26T06:31:01.263Z,52.25
2022-09-26T06:33:03.225Z,54.35
2022-09-26T06:35:06.537Z,53.22
2022-09-26T06:37:08.248Z,54.72
2022-09-26T06:39:10.153Z,56.42
2022-09-26T06:41:11.927Z,54.25
2022-09-26T06:43:13.825Z,55.25
2022-09-26T06:45:15.735Z,54.25
2022-09-26T06:47:18.048Z,58.22
2022-09-26T06:49:19.908Z,55.85
2022-09-26T06:51:21.693Z,58.67
2022-09-26T06:53:23.700Z,48.78
2022-09-26T06:55:25.408Z,49.58
2022-09-26T06:57:27.230Z,55.05
2022-09-26T06:59:28.986Z,51.55
2022-09-26T07:01:30.753Z,63.83
2022-09-26T07:03:32.822Z,53.42
2022-09-26T07:05:34.603Z,55.38
2022-09-26T07:07:42.674Z,51.60
2022-09-26T07:09:44.535Z,55.60
2022-09-26T07:12:14.045Z,59.45
2022-09-26T07:14:11.282Z,57.30
2022-09-26T07:16:13.487Z,55.03
2022-09-26T07:18:15.427Z,51.92
2022-09-26T07:20:19.812Z,54.53
2022-09-26T07:22:21.677Z,50.45
2022-09-26T07:24:23.451Z,55.78
2022-09-26T07:26:25.167Z,52.38
2022-09-26T07:28:27.163Z,52.15
2022-09-26T07:30:29.012Z,53.53
2022-09-26T07:32:31.058Z,56.45
2022-09-26T07:34:32.859Z,59.45
2022-09-26T07:36:34.727Z,47.75
2022-09-26T07:38:36.778Z,54.08
2022-09-26T07:40:38.757Z,45.75
2022-09-26T07:42:40.533Z,41.63
2022-09-26T07:47:04.506Z,44.83
2022-09-26T07:49:06.292Z,44.08
2022-09-26T07:51:09.353Z,47.75
2022-09-26T07:53:11.278Z,50.65
2022-09-26T07:55:16.294Z,47.45
2022-09-26T07:57:17.978Z,47.65
2022-09-26T07:59:19.930Z,45.92
2022-09-26T08:01:21.885Z,45.90
2022-09-26T08:03:24.140Z,51.50
2022-09-26T08:05:26.135Z,42.03
2022-09-26T08:07:27.980Z,43.30
2022-09-26T08:09:29.706Z,37.60
2022-09-26T08:11:31.582Z,40.75
2022-09-26T08:13:33.547Z,42.45
2022-09-26T08:15:35.282Z,40.05
2022-09-26T08:17:37.125Z,38.38
2022-09-26T08:19:39.070Z,40.60
2022-09-26T08:21:40.759Z,47.15
2022-09-26T08:23:42.540Z,50.33
2022-09-26T08:25:44.763Z,41.67
2022-09-26T08:27:46.450Z,40.75
2022-09-26T08:29:48.951Z,38.90
2022-09-26T08:31:50.771Z,38.50
2022-09-26T08:33:52.550Z,37.67
2022-09-26T08:35:54.531Z,37.10
2022-09-26T08:38:01.049Z,38.05
2022-09-26T08:40:02.879Z,37.05
2022-09-26T08:42:10.738Z,36.40
2022-09-26T08:44:56.755Z,40.58
2022-09-26T08:47:03.290Z,38.83
2022-09-26T08:49:26.401Z,35.65
2022-09-26T08:51:44.444Z,35.28
2022-09-26T08:53:56.034Z,33.65
2022-09-26T08:56:00.751Z,34.72
2022-09-26T08:58:10.820Z,30.30
2022-09-26T09:00:22.531Z,30.45
2022-09-26T09:02:40.446Z,31.38
2022-09-26T09:04:58.011Z,30.80
2022-09-26T09:07:07.264Z,31.05
2022-09-26T09:09:14.817Z,27.83
2022-09-26T09:11:37.467Z,28.88
2022-09-26T09:13:58.079Z,31.05
2022-09-26T09:16:40.686Z,29.77
2022-09-26T09:19:00.035Z,32.38
2022-09-26T09:21:01.670Z,26.67
2022-09-26T09:23:27.917Z,24.45
2022-09-26T09:25:42.532Z,22.70
2022-09-26T09:27:53.831Z,24.58
2022-09-26T09:30:01.352Z,23.70
2022-09-26T09:32:04.928Z,21.60
2022-09-26T09:36:25.666Z,24.80
2022-09-26T09:38:30.538Z,24.52
2022-09-26T09:40:41.377Z,20.42
2022-09-26T09:43:06.126Z,14.18
2022-09-26T09:45:33.423Z,12.52
2022-09-26T09:47:39.135Z,14.95
2022-09-26T09:49:42.699Z,17.63
2022-09-26T09:54:10.273Z,15.38
2022-09-26T09:56:12.091Z,15.32
2022-09-26T09:58:34.586Z,14.60
2022-09-26T10:00:42.218Z,14.35
2022-09-26T10:02:46.945Z,12.90
2022-09-26T10:05:00.334Z,12.98
2022-09-26T10:07:02.417Z,10.70
2022-09-26T10:09:40.370Z,15.00
2022-09-26T10:11:42.916Z,13.82
2022-09-26T10:13:45.431Z,12.05
2022-09-26T10:16:00.025Z,11.73
2022-09-26T10:18:24.046Z,14.40
2022-09-26T10:20:39.632Z,13.90
2022-09-26T10:22:43.666Z,12.68
2022-09-26T10:24:47.434Z,21.75
2022-09-26T10:26:49.147Z,14.30
2022-09-26T10:28:54.575Z,13.32
2022-09-26T10:31:05.531Z,13.85
2022-09-26T10:33:24.684Z,12.88
2022-09-26T10:35:43.157Z,17.15
2022-09-26T10:38:07.114Z,15.68
2022-09-26T10:40:27.948Z,17.25
2022-09-26T10:42:32.417Z,14.43
2022-09-26T10:44:35.454Z,12.07
2022-09-26T10:46:37.385Z,12.68
2022-09-26T10:48:51.199Z,15.32
2022-09-26T10:50:55.859Z,11.02
2022-09-26T10:53:02.997Z,10.38
2022-09-26T10:55:16.713Z,10.77
2022-09-26T10:57:23.520Z,12.82
2022-09-26T10:59:29.520Z,12.38
2022-09-26T11:01:32.271Z,14.52
2022-09-26T11:03:41.039Z,12.13
2022-09-26T11:05:45.018Z,14.05
2022-09-26T11:07:48.372Z,13.13
2022-09-26T11:09:50.932Z,13.50
2022-09-26T11:11:53.473Z,11.00
2022-09-26T11:14:03.617Z,14.40
2022-09-26T11:16:10.053Z,12.32
2022-09-26T11:18:23.121Z,10.70
2022-09-26T11:20:44.230Z,11.90
2022-09-26T11:22:54.577Z,9.55
2022-09-26T11:25:05.234Z,10.30
2022-09-26T11:27:21.433Z,10.93
2022-09-26T11:29:37.074Z,9.88
2022-09-26T11:31:41.552Z,11.70
2022-09-26T11:33:43.280Z,12.90
2022-09-26T11:36:09.200Z,15.50
2022-09-26T11:38:42.818Z,13.38
2022-09-26T11:40:59.532Z,11.18
2022-09-26T11:43:29.300Z,11.77
2022-09-26T11:46:02.937Z,11.27
2022-09-26T11:48:26.611Z,10.13
2022-09-26T11:50:40.550Z,11.10
2022-09-26T11:55:23.758Z,12.97
2022-09-26T11:57:53.096Z,9.15
2022-09-26T12:00:08.937Z,10.55
2022-09-26T12:02:30.816Z,10.93
2022-09-26T12:04:59.925Z,13.40
2022-09-26T12:07:22.856Z,10.88
2022-09-26T12:09:58.006Z,9.32
2022-09-26T12:12:27.135Z,11.10
2022-09-26T12:15:10.591Z,11.85
2022-09-26T12:17:30.576Z,9.88
2022-09-26T12:19:38.846Z,8.93
2022-09-26T12:22:11.604Z,10.48
2022-09-26T12:24:27.618Z,9.43
2022-09-26T12:27:40.070Z,10.55
2022-09-26T12:30:04.491Z,13.00
2022-09-26T12:32:33.702Z,12.98
2022-09-26T12:35:05.974Z,10.45
2022-09-26T12:37:46.096Z,9.00
2022-09-26T12:40:01.321Z,9.25
2022-09-26T12:42:14.928Z,8.77
2022-09-26T12:44:41.773Z,10.82
2022-09-26T12:47:07.036Z,14.45
2022-09-26T12:49:40.095Z,10.32
2022-09-26T12:51:51.548Z,12.32
2022-09-26T12:54:17.636Z,10.35
2022-09-26T12:56:36.271Z,11.55
2022-09-26T12:58:43.966Z,11.65
2022-09-26T13:01:01.168Z,11.27
2022-09-26T13:03:24.376Z,11.38
2022-09-26T13:05:47.532Z,12.60
2022-09-26T13:08:18.525Z,9.65
2022-09-26T13:10:26.367Z,11.20
2022-09-26T13:13:01.656Z,11.07
2022-09-26T13:15:19.308Z,12.68
2022-09-26T13:17:23.901Z,10.18
2022-09-26T13:19:54.604Z,12.85
2022-09-26T13:22:01.072Z,12.38
2022-09-26T13:24:11.606Z,13.73
2022-09-26T13:26:29.597Z,10.70
2022-09-26T13:28:55.471Z,13.15
2022-09-26T13:31:35.822Z,10.50
2022-09-26T13:34:03.568Z,23.05
2022-09-26T13:36:09.056Z,14.88
2022-09-26T13:38:43.157Z,17.90
2022-09-26T13:40:57.226Z,14.57
2022-09-26T13:43:14.154Z,12.48
2022-09-26T13:45:27.877Z,11.43
2022-09-26T13:47:45.610Z,13.18
2022-09-26T13:50:13.817Z,10.98
2022-09-26T13:52:33.993Z,9.35
2022-09-26T13:54:46.456Z,10.00
2022-09-26T13:56:52.121Z,11.60
2022-09-26T13:59:31.277Z,9.60
2022-09-26T14:01:32.967Z,8.98
2022-09-26T14:03:39.287Z,8.88
2022-09-26T14:05:44.037Z,11.55
2022-09-26T14:07:53.338Z,9.82
2022-09-26T14:10:01.095Z,11.60
2022-09-26T14:12:22.057Z,11.80
2022-09-26T14:14:26.263Z,12.68
2022-09-26T14:16:27.902Z,8.68
2022-09-26T14:19:07.065Z,9.15
2022-09-26T14:21:21.299Z,10.68
2022-09-26T14:23:43.072Z,9.30
2022-09-26T14:25:44.868Z,11.50
2022-09-26T14:27:46.833Z,15.27
2022-09-26T14:30:10.306Z,10.90
2022-09-26T14:32:43.690Z,11.73
2022-09-26T14:34:53.946Z,14.75
2022-09-26T14:37:01.687Z,13.50
2022-09-26T14:39:05.273Z,11.02
2022-09-26T14:43:19.880Z,11.98
2022-09-26T14:45:25.979Z,11.07
2022-09-26T14:47:39.848Z,14.23
2022-09-26T14:49:42.074Z,14.48
2022-09-26T14:51:49.249Z,12.65
2022-09-26T14:53:53.914Z,20.63
2022-09-26T14:56:06.154Z,26.10
2022-09-26T14:58:49.546Z,173.93
2022-09-26T15:00:54.651Z,102.07
2022-09-26T15:03:00.987Z,23.85
2022-09-26T15:05:12.206Z,16.77
2022-09-26T15:07:25.437Z,13.32
2022-09-26T15:09:40.689Z,17.67
2022-09-26T15:11:47.889Z,13.68
2022-09-26T15:13:52.449Z,16.70
2022-09-26T15:16:19.224Z,14.05
2022-09-26T15:18:27.057Z,15.82
2022-09-26T15:20:31.197Z,12.38
2022-09-26T15:22:35.454Z,14.85
2022-09-26T15:24:37.285Z,12.13
2022-09-26T15:26:39.081Z,10.88
2022-09-26T15:28:40.862Z,12.90
2022-09-26T15:30:42.806Z,12.02
2022-09-26T15:32:47.214Z,20.40
2022-09-26T15:34:49.032Z,15.93
2022-09-26T15:36:56.703Z,18.02
2022-09-26T15:38:58.807Z,12.65
2022-09-26T15:41:02.161Z,26.10
2022-09-26T15:43:10.204Z,18.90
2022-09-26T15:45:22.625Z,17.13
2022-09-26T15:47:41.481Z,15.15
2022-09-26T15:49:43.233Z,18.27
2022-09-26T15:51:45.426Z,17.52
2022-09-26T15:53:55.863Z,17.77
2022-09-26T15:55:57.534Z,15.63
2022-09-26T15:58:02.290Z,16.30
2022-09-26T16:00:04.324Z,14.68
2022-09-26T16:02:31.075Z,15.27
2022-09-26T16:04:33.329Z,13.52
2022-09-26T16:06:38.086Z,14.70
2022-09-26T16:08:42.660Z,18.02
2022-09-26T16:10:54.129Z,19.55
2022-09-26T16:12:58.216Z,16.67
2022-09-26T16:15:18.114Z,17.80
2022-09-26T16:17:24.993Z,17.23
2022-09-26T16:19:35.241Z,19.60
2022-09-26T16:21:36.947Z,18.25
2022-09-26T16:23:49.575Z,15.63
2022-09-26T16:25:53.526Z,17.95
2022-09-26T16:27:59.643Z,17.23
2022-09-26T16:30:05.262Z,17.90
2022-09-26T16:32:19.640Z,17.48
2022-09-26T16:36:27.925Z,16.85
2022-09-26T16:38:34.146Z,32.13
2022-09-26T16:40:36.552Z,53.10
2022-09-26T16:42:38.432Z,37.60
2022-09-26T16:44:42.191Z,38.78
2022-09-26T16:46:50.302Z,37.95
2022-09-26T16:48:52.070Z,35.90
2022-09-26T16:51:12.049Z,34.88
2022-09-26T16:53:13.990Z,71.30
2022-09-26T16:55:15.770Z,55.38
2022-09-26T16:57:32.502Z,32.55
2022-09-26T17:04:30.156Z,52.08
2022-09-26T17:06:31.849Z,36.97
2022-09-26T17:08:33.676Z,143.10
2022-09-26T17:10:35.815Z,102.00
2022-09-26T17:12:37.997Z,47.80
2022-09-26T17:14:41.737Z,32.55
2022-09-26T17:19:09.463Z,19.58
2022-09-26T17:21:11.157Z,20.75
2022-09-26T17:23:38.141Z,19.20
2022-09-26T17:25:35.467Z,25.85
2022-09-26T17:27:37.193Z,25.05
2022-09-26T17:29:45.154Z,20.17
2022-09-26T17:31:47.390Z,23.38
2022-09-26T17:33:51.645Z,30.35
2022-09-26T17:35:53.412Z,27.98
2022-09-26T17:37:56.140Z,24.15
2022-09-26T17:39:57.880Z,42.92
2022-09-26T17:41:59.644Z,103.82
2022-09-26T17:44:01.587Z,57.90
2022-09-26T17:46:03.407Z,28.55
2022-09-26T17:48:12.429Z,23.67
2022-09-26T17:50:40.551Z,53.58
2022-09-26T17:52:42.242Z,36.63
2022-09-26T17:54:46.463Z,56.65
2022-09-26T17:56:48.730Z,56.13
2022-09-26T17:58:50.443Z,49.08
2022-09-26T18:00:52.348Z,55.92
2022-09-26T18:03:00.489Z,67.07
2022-09-26T18:05:08.275Z,64.22
2022-09-26T18:07:12.348Z,63.15
2022-09-26T18:09:15.425Z,52.42
2022-09-26T18:11:18.749Z,52.90
2022-09-26T18:13:23.180Z,151.85
2022-09-26T18:15:26.823Z,323.55
2022-09-26T18:19:30.098Z,255.48
2022-09-26T18:21:31.978Z,200.68
2022-09-26T18:23:52.225Z,213.85
2022-09-26T18:25:56.867Z,163.40
2022-09-26T18:28:02.403Z,144.93
2022-09-26T18:30:04.843Z,170.00
2022-09-26T18:32:14.209Z,247.25
2022-09-26T18:34:17.166Z,280.80
2022-09-26T18:36:18.921Z,219.93
2022-09-26T18:38:20.677Z,101.15
2022-09-26T18:40:28.450Z,101.28
2022-09-26T18:42:30.330Z,100.50
2022-09-26T18:44:32.578Z,88.60
2022-09-26T18:46:34.447Z,173.70
2022-09-26T18:48:36.215Z,79.90
2022-09-26T18:50:39.670Z,62.88
2022-09-26T18:52:41.533Z,110.13
2022-09-26T18:54:44.703Z,129.80
2022-09-26T18:56:46.394Z,69.38
2022-09-26T18:58:48.538Z,39.90
2022-09-26T19:00:58.880Z,102.50
2022-09-26T19:03:00.612Z,72.03
2022-09-26T19:05:04.113Z,48.50
2022-09-26T19:07:06.864Z,83.28
2022-09-26T19:09:13.261Z,43.93
2022-09-26T19:11:18.427Z,41.00
2022-09-26T19:13:24.022Z,34.20
2022-09-26T19:15:28.497Z,31.73
2022-09-26T19:17:30.271Z,37.25
2022-09-26T19:19:32.033Z,36.03
2022-09-26T19:21:46.221Z,49.85
2022-09-26T19:23:49.523Z,36.53
2022-09-26T19:25:51.342Z,50.35
2022-09-26T19:27:53.209Z,36.33
2022-09-26T19:30:02.579Z,32.95
2022-09-26T19:32:08.512Z,35.80
2022-09-26T19:34:15.323Z,37.35
2022-09-26T19:36:19.258Z,39.95
2022-09-26T19:38:26.686Z,41.83
2022-09-26T19:40:29.116Z,58.33
2022-09-26T19:42:30.979Z,45.85
2022-09-26T19:44:32.674Z,33.53
2022-09-26T19:46:37.198Z,34.13
2022-09-26T19:48:40.650Z,49.85
2022-09-26T19:50:44.681Z,61.63
2022-09-26T19:52:46.800Z,38.00
2022-09-26T19:54:49.223Z,69.97
2022-09-26T19:56:51.015Z,61.20
2022-09-26T19:58:52.773Z,57.70
2022-09-26T20:00:57.452Z,36.65
2022-09-26T20:02:59.355Z,36.47
2022-09-26T20:05:01.295Z,50.08
2022-09-26T20:07:03.126Z,44.53
2022-09-26T20:09:10.886Z,37.47
2022-09-26T20:11:12.595Z,40.10
2022-09-26T20:13:14.545Z,40.30
2022-09-26T20:15:18.091Z,42.10
2022-09-26T20:17:25.891Z,40.97
2022-09-26T20:19:30.702Z,46.15
2022-09-26T20:21:33.118Z,37.03
2022-09-26T20:23:35.698Z,40.30
2022-09-26T20:25:37.441Z,39.33
2022-09-26T20:27:39.120Z,46.40
2022-09-26T20:29:40.873Z,46.38
2022-09-26T20:31:42.698Z,41.08
2022-09-26T20:33:44.423Z,40.58
2022-09-26T20:35:47.175Z,63.58
2022-09-26T20:37:49.262Z,63.55
2022-09-26T20:39:51.481Z,75.65
2022-09-26T20:41:53.493Z,67.53
2022-09-26T20:43:59.102Z,49.38
2022-09-26T20:46:09.729Z,64.78
2022-09-26T20:48:21.131Z,50.75
2022-09-26T20:50:22.982Z,49.72
2022-09-26T20:52:27.486Z,53.22
2022-09-26T20:54:31.663Z,49.33
2022-09-26T20:56:33.391Z,45.45
2022-09-26T20:58:35.325Z,46.15
2022-09-26T21:00:37.133Z,52.33
2022-09-26T21:02:39.631Z,44.85
2022-09-26T21:04:41.540Z,49.80
2022-09-26T21:06:44.452Z,53.63
2022-09-26T21:08:46.658Z,68.38
2022-09-26T21:10:48.509Z,115.28
2022-09-26T21:12:50.615Z,55.75
2022-09-26T21:14:52.382Z,144.32
2022-09-26T21:16:54.660Z,80.70
2022-09-26T21:18:56.481Z,49.10
2022-09-26T21:21:07.234Z,46.28
2022-09-26T21:23:10.277Z,46.83
2022-09-26T21:25:20.127Z,44.83
2022-09-26T21:27:21.856Z,82.00
2022-09-26T21:29:23.856Z,49.00
2022-09-26T21:31:32.044Z,88.15
2022-09-26T21:33:33.788Z,89.45
2022-09-26T21:35:35.559Z,60.13
2022-09-26T21:37:37.311Z,39.85
2022-09-26T21:39:39.329Z,46.60
2022-09-26T21:41:41.191Z,42.10
2022-09-26T21:43:49.098Z,43.05
2022-09-26T21:45:50.890Z,45.53
2022-09-26T21:47:52.681Z,43.78
2022-09-26T21:49:54.440Z,36.80
2022-09-26T21:52:05.839Z,58.42
2022-09-26T21:54:12.913Z,86.45
2022-09-26T21:56:25.779Z,70.30
2022-09-26T21:58:30.918Z,63.35
2022-09-26T22:00:32.930Z,53.22
2022-09-26T22:02:34.750Z,50.33
2022-09-26T22:04:36.781Z,56.72
2022-09-26T22:06:38.581Z,63.10
2022-09-26T22:08:41.182Z,70.05
2022-09-26T22:10:49.966Z,52.90
2022-09-26T22:12:52.303Z,48.22
2022-09-26T22:14:54.028Z,56.85
2022-09-26T22:16:56.227Z,48.60
2022-09-26T22:18:58.518Z,75.15
2022-09-26T22:21:00.221Z,62.45
2022-09-26T22:23:01.967Z,55.45
2022-09-26T22:25:05.517Z,42.40
2022-09-26T22:27:07.182Z,42.80
2022-09-26T22:29:09.094Z,42.05
2022-09-26T22:31:11.683Z,46.50
2022-09-26T22:33:13.511Z,42.67
2022-09-26T22:35:15.351Z,43.83
2022-09-26T22:37:17.292Z,47.75
2022-09-26T22:39:19.240Z,83.22
2022-09-26T22:41:21.328Z,69.45
2022-09-26T22:43:23.270Z,139.93
2022-09-26T22:45:25.008Z,89.55
2022-09-26T22:47:26.900Z,91.03
2022-09-26T22:49:28.810Z,55.78
2022-09-26T22:51:30.506Z,55.17
2022-09-26T22:53:34.210Z,47.03
2022-09-26T22:57:37.628Z,69.55
2022-09-26T22:59:39.463Z,117.55
2022-09-26T23:01:41.217Z,95.85
2022-09-26T23:03:43.155Z,75.70
2022-09-26T23:05:47.463Z,73.95
2022-09-26T23:07:55.473Z,106.43
2022-09-26T23:09:57.639Z,49.45
2022-09-26T23:11:59.391Z,61.38
2022-09-26T23:14:01.119Z,47.22
2022-09-26T23:16:07.711Z,66.25
2022-09-26T23:18:10.302Z,58.83
2022-09-26T23:20:12.019Z,50.55
2022-09-26T23:22:14.044Z,50.28
2022-09-26T23:24:15.902Z,51.80
2022-09-26T23:26:20.794Z,65.68
2022-09-26T23:28:22.534Z,64.13
2022-09-26T23:30:24.483Z,58.42
2022-09-26T23:32:26.260Z,49.42
2022-09-26T23:34:28.013Z,47.85
2022-09-26T23:36:30.092Z,46.65
2022-09-26T23:38:32.051Z,46.30
2022-09-26T23:40:36.132Z,46.92
2022-09-26T23:42:37.856Z,55.13
2022-09-26T23:44:39.651Z,61.17
2022-09-26T23:46:41.558Z,55.30
2022-09-26T23:48:43.651Z,58.20
2022-09-26T23:50:46.436Z,52.35
2022-09-26T23:52:48.501Z,49.77
2022-09-26T23:54:50.257Z,57.00
2022-09-26T23:56:51.928Z,50.40
2022-09-26T23:58:56.288Z,45.83
